createdAt,value
2023-05-06T00:01:46.874Z,99.90
2023-05-06T00:04:15.443Z,99.90
2023-05-06T00:06:42.727Z,99.90
2023-05-06T00:09:18.016Z,99.90
2023-05-06T00:11:46.091Z,99.90
2023-05-06T00:14:13.495Z,99.90
2023-05-06T00:16:40.993Z,99.90
2023-05-06T00:21:49.691Z,99.90
2023-05-06T00:24:17.184Z,99.90
2023-05-06T00:26:44.518Z,99.90
2023-05-06T00:29:15.304Z,99.90
2023-05-06T00:31:42.712Z,99.90
2023-05-06T00:34:16.504Z,99.90
2023-05-06T00:36:44.998Z,99.90
2023-05-06T00:39:12.181Z,99.90
2023-05-06T00:41:39.345Z,99.90
2023-05-06T00:44:06.667Z,99.90
2023-05-06T00:46:37.178Z,99.90
2023-05-06T00:49:04.380Z,99.90
2023-05-06T00:51:32.628Z,99.90
2023-05-06T00:54:01.037Z,99.90
2023-05-06T00:56:28.490Z,99.90
2023-05-06T00:58:59.133Z,99.90
2023-05-06T01:01:27.343Z,99.90
2023-05-06T01:03:57.525Z,99.90
2023-05-06T01:06:43.641Z,99.90
2023-05-06T01:09:46.926Z,99.90
2023-05-06T01:12:34.600Z,99.90
2023-05-06T01:15:11.885Z,99.90
2023-05-06T01:17:45.142Z,99.90
2023-05-06T01:20:13.409Z,99.90
2023-05-06T01:22:40.897Z,99.90
2023-05-06T01:25:08.575Z,99.90
2023-05-06T01:27:36.071Z,99.90
2023-05-06T01:30:04.798Z,99.90
2023-05-06T01:32:50.566Z,99.90
2023-05-06T01:35:28.252Z,99.90
2023-05-06T01:38:34.844Z,99.90
2023-05-06T01:41:03.247Z,99.90
2023-05-06T01:43:49.024Z,99.90
2023-05-06T01:46:19.630Z,99.90
2023-05-06T01:48:47.556Z,99.90
2023-05-06T01:51:14.787Z,99.90
2023-05-06T01:53:41.930Z,99.90
2023-05-06T01:56:09.425Z,99.90
2023-05-06T01:58:39.156Z,99.90
2023-05-06T02:01:06.390Z,99.90
2023-05-06T02:03:34.261Z,99.90
2023-05-06T02:06:02.857Z,99.90
2023-05-06T02:08:30.736Z,99.90
2023-05-06T02:10:58.568Z,99.90
2023-05-06T02:13:26.261Z,99.90
2023-05-06T02:15:57.142Z,99.90
2023-05-06T02:18:25.831Z,99.90
2023-05-06T02:20:53.038Z,99.90
2023-05-06T02:23:20.174Z,99.90
2023-05-06T02:25:48.670Z,99.90
2023-05-06T02:28:26.173Z,99.90
2023-05-06T02:30:58.302Z,99.90
2023-05-06T02:33:26.816Z,99.90
2023-05-06T02:35:56.158Z,99.90
2023-05-06T02:38:26.849Z,99.90
2023-05-06T02:40:53.997Z,99.90
2023-05-06T02:43:23.213Z,99.90
2023-05-06T02:46:09.108Z,99.90
2023-05-06T02:48:55.055Z,99.90
2023-05-06T02:51:22.325Z,99.90
2023-05-06T02:54:27.643Z,99.90
2023-05-06T02:56:54.833Z,99.90
2023-05-06T02:59:22.344Z,99.90
2023-05-06T03:01:49.476Z,99.90
2023-05-06T03:04:16.783Z,99.90
2023-05-06T03:06:43.956Z,99.90
2023-05-06T03:09:11.465Z,99.90
2023-05-06T03:11:38.624Z,99.90
2023-05-06T03:14:05.793Z,99.90
2023-05-06T03:16:33.265Z,99.90
2023-05-06T03:19:00.562Z,99.90
2023-05-06T03:21:27.732Z,99.90
2023-05-06T03:23:55.056Z,99.90
2023-05-06T03:26:22.611Z,99.90
2023-05-06T03:28:50.297Z,99.90
2023-05-06T03:31:17.601Z,99.90
2023-05-06T03:33:44.876Z,99.90
2023-05-06T03:36:14.134Z,99.90
2023-05-06T03:38:45.618Z,99.90
2023-05-06T03:41:12.853Z,99.90
2023-05-06T03:43:40.279Z,99.90
2023-05-06T03:46:08.013Z,99.90
2023-05-06T03:48:35.401Z,99.90
2023-05-06T03:51:03.244Z,99.90
2023-05-06T03:53:30.477Z,99.90
2023-05-06T03:55:57.663Z,99.90
2023-05-06T03:58:25.136Z,99.90
2023-05-06T04:00:52.272Z,99.90
2023-05-06T04:03:19.629Z,99.90
2023-05-06T04:05:48.322Z,99.90
2023-05-06T04:08:17.251Z,99.90
2023-05-06T04:10:45.361Z,99.90
2023-05-06T04:13:12.642Z,99.90
2023-05-06T04:15:41.641Z,99.90
2023-05-06T04:18:08.848Z,99.90
2023-05-06T04:20:36.431Z,99.90
2023-05-06T04:23:03.657Z,99.90
2023-05-06T04:25:33.031Z,99.90
2023-05-06T04:28:03.324Z,99.90
2023-05-06T04:30:30.479Z,99.90
2023-05-06T04:32:58.194Z,99.90
2023-05-06T04:35:25.442Z,99.90
2023-05-06T04:37:54.038Z,99.90
2023-05-06T04:40:21.754Z,99.90
2023-05-06T04:42:48.940Z,99.90
2023-05-06T04:45:17.263Z,99.90
2023-05-06T04:47:44.582Z,99.90
2023-05-06T04:50:12.005Z,99.90
2023-05-06T04:52:39.277Z,99.90
2023-05-06T04:55:06.764Z,99.90
2023-05-06T04:57:34.013Z,99.90
2023-05-06T05:00:01.264Z,99.90
2023-05-06T05:02:28.608Z,99.90
2023-05-06T05:05:13.164Z,99.90
2023-05-06T05:07:44.056Z,99.90
2023-05-06T05:10:14.259Z,99.90
2023-05-06T05:12:43.845Z,99.90
2023-05-06T05:15:18.504Z,99.90
2023-05-06T05:17:48.234Z,99.90
2023-05-06T05:23:49.675Z,99.90
2023-05-06T05:26:19.205Z,99.90
2023-05-06T05:28:49.087Z,99.90
2023-05-06T05:31:18.138Z,99.90
2023-05-06T05:33:48.200Z,99.90
2023-05-06T05:36:16.786Z,99.90
2023-05-06T05:38:45.579Z,99.90
2023-05-06T05:41:13.356Z,99.90
2023-05-06T05:43:50.367Z,99.90
2023-05-06T05:46:20.281Z,99.90
2023-05-06T05:48:47.842Z,99.90
2023-05-06T05:51:20.665Z,99.90
2023-05-06T05:53:53.555Z,99.90
2023-05-06T05:56:23.900Z,99.90
2023-05-06T05:58:52.508Z,99.90
2023-05-06T06:01:20.765Z,99.90
2023-05-06T06:03:50.045Z,99.90
2023-05-06T06:06:17.581Z,99.90
2023-05-06T06:08:51.518Z,99.90
2023-05-06T06:11:19.185Z,99.90
2023-05-06T06:13:46.374Z,99.90
2023-05-06T06:16:16.109Z,99.90
2023-05-06T06:18:46.491Z,99.90
2023-05-06T06:21:16.171Z,99.90
2023-05-06T06:23:44.126Z,99.90
2023-05-06T06:26:12.612Z,99.90
2023-05-06T06:28:40.877Z,99.90
2023-05-06T06:31:09.696Z,99.90
2023-05-06T06:33:42.982Z,99.90
2023-05-06T06:36:11.472Z,99.90
2023-05-06T06:38:41.798Z,99.90
2023-05-06T06:41:32.509Z,99.90
2023-05-06T06:44:01.677Z,99.90
2023-05-06T06:46:28.973Z,99.90
2023-05-06T06:49:15.523Z,99.90
2023-05-06T06:51:53.170Z,99.90
2023-05-06T06:54:23.452Z,99.90
2023-05-06T06:57:02.872Z,99.90
2023-05-06T06:59:38.430Z,99.90
2023-05-06T07:02:08.302Z,99.90
2023-05-06T07:04:37.143Z,99.90
2023-05-06T07:07:04.643Z,99.90
2023-05-06T07:09:33.410Z,99.90
2023-05-06T07:12:02.785Z,99.90
2023-05-06T07:14:31.851Z,99.90
2023-05-06T07:17:02.039Z,99.90
2023-05-06T07:19:32.248Z,99.90
2023-05-06T07:21:59.879Z,99.90
2023-05-06T07:24:28.057Z,99.90
2023-05-06T07:26:55.481Z,99.90
2023-05-06T07:32:08.707Z,99.90
2023-05-06T07:40:01.479Z,99.90
2023-05-06T07:42:29.715Z,99.90
2023-05-06T07:45:00.440Z,99.90
2023-05-06T07:47:34.912Z,99.90
2023-05-06T07:50:06.366Z,99.90
2023-05-06T07:52:33.729Z,99.90
2023-05-06T07:55:11.779Z,99.90
2023-05-06T07:57:40.571Z,99.90
2023-05-06T08:00:25.895Z,99.90
2023-05-06T08:02:53.721Z,99.90
2023-05-06T08:05:21.100Z,99.90
2023-05-06T08:07:52.749Z,99.90
2023-05-06T08:10:37.321Z,99.00
2023-05-06T08:13:07.544Z,98.60
2023-05-06T08:15:43.230Z,98.00
2023-05-06T08:18:21.723Z,97.20
2023-05-06T08:20:55.002Z,97.70
2023-05-06T08:23:23.236Z,97.90
2023-05-06T08:25:54.194Z,96.30
2023-05-06T08:28:26.651Z,96.40
2023-05-06T08:31:13.151Z,97.80
2023-05-06T08:33:54.773Z,96.20
2023-05-06T08:36:24.470Z,95.80
2023-05-06T08:39:06.301Z,96.20
2023-05-06T08:41:42.905Z,95.30
2023-05-06T08:44:17.889Z,95.20
2023-05-06T08:46:49.310Z,93.50
2023-05-06T08:49:26.744Z,92.60
2023-05-06T08:51:59.627Z,91.80
2023-05-06T08:55:04.280Z,92.20
2023-05-06T09:00:27.070Z,91.30
2023-05-06T09:02:57.509Z,90.30
2023-05-06T09:05:44.131Z,91.70
2023-05-06T09:08:16.423Z,88.70
2023-05-06T09:11:26.532Z,88.30
2023-05-06T09:14:25.531Z,86.70
2023-05-06T09:16:55.046Z,86.00
2023-05-06T09:19:24.919Z,84.50
2023-05-06T09:22:07.110Z,86.50
2023-05-06T09:24:34.882Z,84.60
2023-05-06T09:27:07.514Z,83.70
2023-05-06T09:29:36.305Z,82.30
2023-05-06T09:32:12.879Z,84.30
2023-05-06T09:34:46.541Z,83.30
2023-05-06T09:37:14.097Z,81.80
2023-05-06T09:39:47.550Z,80.80
2023-05-06T09:42:18.760Z,82.50
2023-05-06T09:44:48.915Z,82.10
2023-05-06T09:47:27.778Z,79.10
2023-05-06T09:50:03.071Z,78.00
2023-05-06T09:52:39.613Z,77.20
2023-05-06T09:55:32.912Z,77.10
2023-05-06T09:58:10.701Z,77.00
2023-05-06T10:00:48.949Z,76.80
2023-05-06T10:03:22.169Z,75.80
2023-05-06T10:05:49.872Z,76.40
2023-05-06T10:12:51.370Z,77.00
2023-05-06T10:16:07.180Z,77.00
2023-05-06T10:26:14.408Z,74.20
2023-05-06T10:29:03.757Z,73.80
2023-05-06T10:34:55.572Z,73.80
2023-05-06T10:38:16.611Z,73.80
2023-05-06T10:40:49.798Z,74.30
2023-05-06T10:43:27.878Z,72.90
2023-05-06T10:46:09.966Z,72.80
2023-05-06T10:49:15.379Z,71.90
2023-05-06T10:51:56.628Z,73.20
2023-05-06T10:54:32.270Z,73.20
2023-05-06T10:57:14.317Z,72.10
2023-05-06T11:03:22.021Z,73.60
2023-05-06T11:05:54.495Z,73.60
2023-05-06T11:08:34.415Z,71.50
2023-05-06T11:11:47.325Z,71.60
2023-05-06T11:14:24.629Z,70.40
2023-05-06T11:16:54.263Z,70.50
2023-05-06T11:19:27.426Z,71.00
2023-05-06T11:21:58.235Z,72.40
2023-05-06T11:24:44.013Z,69.90
2023-05-06T11:27:28.794Z,69.00
2023-05-06T11:30:02.290Z,68.70
2023-05-06T11:32:30.114Z,67.30
2023-05-06T11:34:58.545Z,68.30
2023-05-06T11:37:29.995Z,69.10
2023-05-06T11:39:57.420Z,65.20
2023-05-06T11:42:29.279Z,66.00
2023-05-06T11:45:38.977Z,67.60
2023-05-06T11:48:28.229Z,68.30
2023-05-06T11:57:30.629Z,69.00
2023-05-06T12:03:27.672Z,65.70
2023-05-06T12:05:55.884Z,64.90
2023-05-06T12:09:06.138Z,64.80
2023-05-06T12:11:37.640Z,65.10
2023-05-06T12:14:10.760Z,66.10
2023-05-06T12:16:38.445Z,64.40
2023-05-06T12:19:06.521Z,64.30
2023-05-06T12:21:43.519Z,62.50
2023-05-06T12:24:30.420Z,61.50
2023-05-06T12:27:03.093Z,61.50
2023-05-06T12:29:39.881Z,62.20
2023-05-06T12:32:15.389Z,61.80
2023-05-06T12:34:47.067Z,63.10
2023-05-06T12:37:26.260Z,64.40
2023-05-06T12:39:56.994Z,66.10
2023-05-06T12:42:26.699Z,65.10
2023-05-06T12:45:05.044Z,65.30
2023-05-06T12:47:36.818Z,65.00
2023-05-06T12:50:25.743Z,65.50
2023-05-06T12:52:59.227Z,63.30
2023-05-06T12:55:32.674Z,63.70
2023-05-06T12:58:00.189Z,63.80
2023-05-06T13:00:37.487Z,64.50
2023-05-06T13:03:17.233Z,63.50
2023-05-06T13:05:48.555Z,64.10
2023-05-06T13:08:18.120Z,64.10
2023-05-06T13:10:52.142Z,64.40
2023-05-06T13:17:05.507Z,62.40
2023-05-06T13:22:37.724Z,61.50
2023-05-06T13:26:00.284Z,61.60
2023-05-06T13:28:42.045Z,62.20
2023-05-06T13:31:17.697Z,61.90
2023-05-06T13:33:47.367Z,59.00
2023-05-06T13:36:19.449Z,55.10
2023-05-06T13:39:00.241Z,53.90
2023-05-06T13:41:43.955Z,54.60
2023-05-06T13:44:18.143Z,56.50
2023-05-06T13:46:58.049Z,55.20
2023-05-06T13:50:01.431Z,53.30
2023-05-06T13:52:30.533Z,53.50
2023-05-06T13:55:19.204Z,58.00
2023-05-06T14:01:03.704Z,59.30
2023-05-06T14:03:32.265Z,58.70
2023-05-06T14:06:35.819Z,59.20
2023-05-06T14:09:34.092Z,60.50
2023-05-06T14:12:08.170Z,59.00
2023-05-06T14:14:39.913Z,59.40
2023-05-06T14:17:16.384Z,57.30
2023-05-06T14:19:48.485Z,56.70
2023-05-06T14:22:19.776Z,56.60
2023-05-06T14:24:48.866Z,59.00
2023-05-06T14:27:19.309Z,60.50
2023-05-06T14:29:50.797Z,61.20
2023-05-06T14:32:19.139Z,62.00
2023-05-06T14:34:49.102Z,61.90
2023-05-06T14:37:23.282Z,61.30
2023-05-06T14:39:57.308Z,61.70
2023-05-06T14:42:28.796Z,63.40
2023-05-06T14:45:06.911Z,62.60
2023-05-06T14:47:37.265Z,61.90
2023-05-06T14:50:27.343Z,63.70
2023-05-06T15:07:26.347Z,52.50
2023-05-06T15:13:14.922Z,53.90
2023-05-06T15:16:11.605Z,52.70
2023-05-06T15:18:45.594Z,54.10
2023-05-06T15:21:35.934Z,55.10
2023-05-06T15:24:17.882Z,54.30
2023-05-06T15:27:00.264Z,54.50
2023-05-06T15:29:46.893Z,52.00
2023-05-06T15:32:19.241Z,52.90
2023-05-06T15:37:44.506Z,55.50
2023-05-06T15:45:41.353Z,52.00
2023-05-06T15:51:02.927Z,49.50
2023-05-06T15:53:33.091Z,47.30
2023-05-06T15:56:21.309Z,47.10
2023-05-06T15:59:00.306Z,46.40
2023-05-06T16:05:15.447Z,46.40
2023-05-06T16:07:50.834Z,46.10
2023-05-06T16:10:22.619Z,46.70
2023-05-06T16:13:07.576Z,46.40
2023-05-06T16:15:41.933Z,45.20
2023-05-06T16:18:10.804Z,45.50
2023-05-06T16:23:28.102Z,45.60
2023-05-06T16:26:10.642Z,45.90
2023-05-06T16:28:43.127Z,46.00
2023-05-06T16:31:22.155Z,45.30
2023-05-06T16:33:51.639Z,46.30
2023-05-06T16:47:26.974Z,49.00
2023-05-06T16:49:56.813Z,50.00
2023-05-06T16:52:36.083Z,50.70
2023-05-06T16:58:01.158Z,52.40
2023-05-06T17:00:31.164Z,53.70
2023-05-06T17:02:59.920Z,54.70
2023-05-06T17:05:32.192Z,55.50
2023-05-06T17:08:16.086Z,56.80
2023-05-06T17:10:55.402Z,58.00
2023-05-06T17:14:17.888Z,59.30
2023-05-06T17:16:49.417Z,62.00
2023-05-06T17:19:25.952Z,61.80
2023-05-06T17:21:53.490Z,62.60
2023-05-06T17:24:33.429Z,62.30
2023-05-06T17:27:01.676Z,62.60
2023-05-06T17:29:37.795Z,62.70
2023-05-06T17:32:11.362Z,63.30
2023-05-06T17:34:46.312Z,63.40
2023-05-06T17:37:28.354Z,63.30
2023-05-06T17:40:23.300Z,63.60
2023-05-06T17:43:02.901Z,63.70
2023-05-06T17:45:34.809Z,64.60
2023-05-06T17:48:18.368Z,64.50
2023-05-06T17:50:47.191Z,64.50
2023-05-06T17:53:19.556Z,64.90
2023-05-06T17:59:41.120Z,66.20
2023-05-06T18:02:13.998Z,67.20
2023-05-06T18:04:41.498Z,68.70
2023-05-06T18:07:19.424Z,70.90
2023-05-06T18:09:53.721Z,71.30
2023-05-06T18:12:25.716Z,72.00
2023-05-06T18:17:42.376Z,74.40
2023-05-06T18:23:17.309Z,76.60
2023-05-06T18:26:18.701Z,78.30
2023-05-06T18:29:12.973Z,79.90
2023-05-06T18:31:49.956Z,79.50
2023-05-06T18:34:17.827Z,78.80
2023-05-06T18:36:47.704Z,79.40
2023-05-06T18:39:32.954Z,80.10
2023-05-06T18:42:16.581Z,80.20
2023-05-06T18:44:44.279Z,79.70
2023-05-06T18:47:12.211Z,79.90
2023-05-06T18:49:43.777Z,80.30
2023-05-06T18:52:38.167Z,82.20
2023-05-06T18:55:10.112Z,82.80
2023-05-06T18:57:38.768Z,82.50
2023-05-06T19:00:07.640Z,82.50
2023-05-06T19:02:35.016Z,83.40
2023-05-06T19:05:02.917Z,83.90
2023-05-06T19:07:49.450Z,84.50
2023-05-06T19:10:23.426Z,84.60
2023-05-06T19:16:45.659Z,85.40
2023-05-06T19:20:03.511Z,85.80
2023-05-06T19:22:41.865Z,86.60
2023-05-06T19:25:25.931Z,86.00
2023-05-06T19:31:10.126Z,86.40
2023-05-06T19:34:26.942Z,87.80
2023-05-06T19:37:11.117Z,89.20
2023-05-06T19:43:27.884Z,88.40
2023-05-06T19:45:57.716Z,88.90
2023-05-06T19:51:15.547Z,90.00
2023-05-06T19:53:43.837Z,90.20
2023-05-06T19:56:12.653Z,90.60
2023-05-06T19:58:47.979Z,91.00
2023-05-06T20:01:26.853Z,91.40
2023-05-06T20:04:00.178Z,91.50
2023-05-06T20:06:32.656Z,91.90
2023-05-06T20:09:00.624Z,91.90
2023-05-06T20:11:29.366Z,92.30
2023-05-06T20:14:04.038Z,92.50
2023-05-06T20:17:07.907Z,92.80
2023-05-06T20:19:56.771Z,92.90
2023-05-06T20:22:27.663Z,94.20
2023-05-06T20:25:18.997Z,95.20
2023-05-06T20:27:47.304Z,96.30
2023-05-06T20:34:22.649Z,96.60
2023-05-06T20:37:11.323Z,97.50
2023-05-06T20:39:56.546Z,98.80
2023-05-06T20:42:54.558Z,99.80
2023-05-06T20:45:38.034Z,99.90
2023-05-06T20:48:39.261Z,99.90
2023-05-06T20:52:19.319Z,99.90
2023-05-06T20:55:05.253Z,99.90
2023-05-06T20:57:54.866Z,99.90
2023-05-06T21:00:44.974Z,99.90
2023-05-06T21:03:44.008Z,99.90
2023-05-06T21:12:50.276Z,99.90
2023-05-06T21:15:28.594Z,99.90
2023-05-06T21:18:11.901Z,99.90
2023-05-06T21:20:42.985Z,99.90
2023-05-06T21:23:15.945Z,99.90
2023-05-06T21:25:47.837Z,99.90
2023-05-06T21:28:17.518Z,99.90
2023-05-06T21:30:53.560Z,99.90
2023-05-06T21:33:25.567Z,99.90
2023-05-06T21:36:21.949Z,99.90
2023-05-06T21:39:32.359Z,99.90
2023-05-06T21:42:04.476Z,99.90
2023-05-06T21:44:34.091Z,99.90
2023-05-06T21:47:19.057Z,99.90
2023-05-06T21:53:13.086Z,99.90
2023-05-06T21:55:47.949Z,99.90
2023-05-06T21:58:35.348Z,99.90
2023-05-06T22:01:06.314Z,99.90
2023-05-06T22:03:36.583Z,99.90
2023-05-06T22:06:10.903Z,99.90
2023-05-06T22:08:40.547Z,99.90
2023-05-06T22:11:18.845Z,99.90
2023-05-06T22:13:50.494Z,99.90
2023-05-06T22:16:18.986Z,99.90
2023-05-06T22:18:52.034Z,99.90
2023-05-06T22:21:25.210Z,99.90
2023-05-06T22:23:55.588Z,99.90
2023-05-06T22:26:33.416Z,99.90
2023-05-06T22:29:00.674Z,99.90
2023-05-06T22:31:28.278Z,99.90
2023-05-06T22:34:06.256Z,99.90
2023-05-06T22:36:40.310Z,99.90
2023-05-06T22:39:10.910Z,99.90
2023-05-06T22:41:46.682Z,99.90
2023-05-06T22:44:14.438Z,99.90
2023-05-06T22:46:49.410Z,99.90
2023-05-06T22:49:23.160Z,99.90
2023-05-06T22:51:52.785Z,99.90
2023-05-06T22:54:23.620Z,99.90
2023-05-06T22:56:53.574Z,99.90
2023-05-06T22:59:32.385Z,99.90
2023-05-06T23:02:04.910Z,99.90
2023-05-06T23:05:08.734Z,99.90
2023-05-06T23:08:05.759Z,99.90
2023-05-06T23:10:37.433Z,99.90
2023-05-06T23:13:31.714Z,99.90
2023-05-06T23:16:02.249Z,99.90
2023-05-06T23:18:36.368Z,99.90
2023-05-06T23:21:06.308Z,99.90
2023-05-06T23:23:39.790Z,99.90
2023-05-06T23:26:11.084Z,99.90
2023-05-06T23:28:38.815Z,99.90
2023-05-06T23:31:06.881Z,99.90
2023-05-06T23:33:36.255Z,99.90
2023-05-06T23:36:04.584Z,99.90
2023-05-06T23:38:54.803Z,99.90
2023-05-06T23:41:25.922Z,99.90
2023-05-06T23:43:55.713Z,99.90
2023-05-06T23:46:28.043Z,99.90
2023-05-06T23:49:02.314Z,99.90
2023-05-06T23:51:34.377Z,99.90
2023-05-06T23:54:09.133Z,99.90
2023-05-06T23:56:36.377Z,99.90
2023-05-06T23:59:04.309Z,99.90
